Time;durP1;ratioP1;P1;durP2;ratioP2;P2;SDS_P1;SDS_P2;PMS_P1;PMS_P2;Temp;Humidity;BMP_temperature;BMP_pressure;BME280_temperature;BME280_humidity;BME280_pressure;Samples;Min_cycle;Max_cycle;Signal;HPM_P1;HPM_P2
2021/11/14 00:00:13;;;;;;;22.90;13.07;;;;;;;7.38;89.96;96220.81;5089299;28;20064;-72
2021/11/14 00:02:40;;;;;;;24.15;15.07;;;;;;;7.37;89.95;96213.81;5089183;28;20055;-71
2021/11/14 00:05:08;;;;;;;23.92;14.55;;;;;;;7.36;89.92;96212.22;5089613;28;20083;-71
2021/11/14 00:07:34;;;;;;;27.10;16.02;;;;;;;7.35;89.90;96216.00;5088789;28;20055;-71
2021/11/14 00:10:01;;;;;;;26.70;16.23;;;;;;;7.35;89.83;96207.88;5092304;28;20052;-71
2021/11/14 00:12:27;;;;;;;25.77;15.07;;;;;;;7.35;89.80;96204.34;5100338;28;20040;-71
2021/11/14 00:14:55;;;;;;;25.10;15.38;;;;;;;7.36;89.95;96205.97;5086564;28;20047;-71
2021/11/14 00:17:21;;;;;;;25.05;15.65;;;;;;;7.34;89.97;96208.97;5087711;28;20075;-71
2021/11/14 00:19:48;;;;;;;23.90;15.15;;;;;;;7.34;89.95;96214.41;5088367;28;20040;-70
2021/11/14 00:22:15;;;;;;;26.38;15.52;;;;;;;7.31;89.64;96210.41;5088577;28;20044;-71
2021/11/14 00:24:41;;;;;;;27.30;15.85;;;;;;;7.30;89.52;96219.59;5088638;28;20044;-70
2021/11/14 00:27:08;;;;;;;26.80;16.02;;;;;;;7.28;89.63;96218.31;5088807;28;20640;-70
2021/11/14 00:29:34;;;;;;;27.73;16.17;;;;;;;7.27;89.61;96214.00;5083514;28;20048;-70
2021/11/14 00:32:02;;;;;;;29.63;16.55;;;;;;;7.24;89.67;96220.00;5069497;28;20054;-70
2021/11/14 00:34:29;;;;;;;26.67;16.75;;;;;;;7.24;89.63;96223.50;5067888;28;20095;-70
2021/11/14 00:36:55;;;;;;;28.05;16.67;;;;;;;7.24;89.89;96220.81;5069178;28;20047;-70
2021/11/14 00:39:22;;;;;;;26.10;16.80;;;;;;;7.20;89.59;96222.50;5068072;28;20064;-72
2021/11/14 00:41:49;;;;;;;30.17;17.77;;;;;;;7.20;89.66;96216.28;5105169;28;20042;-70
2021/11/14 00:44:16;;;;;;;29.40;17.35;;;;;;;7.19;89.61;96222.81;5109125;27;20050;-71
2021/11/14 00:46:43;;;;;;;27.58;16.65;;;;;;;7.18;89.99;96218.50;5108821;28;20059;-70
2021/11/14 00:49:11;;;;;;;28.17;17.02;;;;;;;7.16;90.10;96226.13;5108834;28;20048;-72
2021/11/14 00:51:38;;;;;;;28.63;17.55;;;;;;;7.17;90.11;96223.13;5108519;28;20051;-72
2021/11/14 00:54:06;;;;;;;31.90;18.83;;;;;;;7.13;90.04;96224.81;5109486;28;20047;-71
2021/11/14 00:56:33;;;;;;;27.75;17.70;;;;;;;7.15;89.76;96224.50;5108774;28;20044;-71
2021/11/14 00:59:01;;;;;;;29.73;18.15;;;;;;;7.13;89.80;96222.09;5109424;28;20513;-72
2021/11/14 01:01:28;;;;;;;30.77;18.85;;;;;;;7.13;89.98;96224.00;5108422;28;20039;-71
2021/11/14 01:03:55;;;;;;;29.77;17.85;;;;;;;7.13;89.58;96229.41;5109167;28;20054;-72
2021/11/14 01:06:22;;;;;;;29.98;18.05;;;;;;;7.13;89.66;96229.41;5108502;28;20055;-73
2021/11/14 01:08:49;;;;;;;31.65;18.27;;;;;;;7.12;89.78;96233.25;5108679;27;20485;-73
2021/11/14 01:11:17;;;;;;;31.15;18.65;;;;;;;7.10;89.54;96235.41;5106430;28;20502;-73
2021/11/14 01:13:44;;;;;;;33.63;19.17;;;;;;;7.06;89.67;96241.44;5108412;28;20059;-71
2021/11/14 01:16:14;;;;;;;32.58;19.05;;;;;;;7.07;89.86;96237.63;5108926;27;20427;-71
2021/11/14 01:18:41;;;;;;;33.40;19.58;;;;;;;7.08;89.92;96235.72;5107988;28;20056;-70
2021/11/14 01:21:09;;;;;;;37.00;19.50;;;;;;;7.09;89.95;96239.25;5108602;28;20755;-71
2021/11/14 01:23:37;;;;;;;33.85;19.27;;;;;;;7.08;89.62;96238.44;5108411;28;20534;-70
2021/11/14 01:26:04;;;;;;;37.78;20.05;;;;;;;7.07;89.83;96237.63;5108445;28;20048;-73
2021/11/14 01:28:31;;;;;;;31.40;19.73;;;;;;;7.08;89.72;96235.72;5108775;28;20405;-70
2021/11/14 01:30:59;;;;;;;36.80;20.20;;;;;;;7.11;89.54;96237.06;5108327;28;20051;-71
2021/11/14 01:33:27;;;;;;;33.58;20.30;;;;;;;7.11;89.92;96242.47;5108550;28;20498;-71
2021/11/14 01:35:55;;;;;;;34.83;20.13;;;;;;;7.12;89.46;96233.25;5108930;28;20048;-71
2021/11/14 01:38:24;;;;;;;35.55;20.33;;;;;;;7.12;89.73;96244.06;5108158;28;20665;-71
2021/11/14 01:40:58;;;;;;;35.25;20.67;;;;;;;7.11;89.56;96232.44;5096443;28;20113;-70
2021/11/14 01:43:28;;;;;;;33.88;20.00;;;;;;;7.13;89.81;96243.75;5087284;28;20039;-71
2021/11/14 01:45:55;;;;;;;36.97;20.90;;;;;;;7.14;89.52;96241.84;5087865;28;20052;-70
2021/11/14 01:48:22;;;;;;;36.85;20.98;;;;;;;7.13;89.72;96229.41;5087528;28;20052;-72
2021/11/14 01:50:49;;;;;;;36.85;20.17;;;;;;;7.13;89.59;96232.94;5088107;28;20059;-71
2021/11/14 01:53:16;;;;;;;36.20;20.50;;;;;;;7.14;89.29;96225.59;5087373;28;20048;-71
2021/11/14 01:55:44;;;;;;;34.40;21.00;;;;;;;7.13;89.48;96234.84;5088496;28;20067;-71
2021/11/14 01:58:14;;;;;;;37.42;20.30;;;;;;;7.12;89.60;96233.25;5086707;28;20093;-71
2021/11/14 02:00:45;;;;;;;35.22;20.35;;;;;;;7.11;89.33;96227.03;5088418;28;20135;-72
2021/11/14 02:03:12;;;;;;;35.50;21.15;;;;;;;7.14;89.44;96233.72;5086654;28;20127;-73
2021/11/14 02:05:39;;;;;;;36.63;20.70;;;;;;;7.14;89.41;96231.03;5088107;28;20054;-73
2021/11/14 02:08:08;;;;;;;35.78;20.70;;;;;;;7.13;89.70;96234.84;5086855;28;20048;-72
2021/11/14 02:10:35;;;;;;;36.35;20.63;;;;;;;7.11;89.40;96229.72;5094305;28;20415;-73
2021/11/14 02:13:03;;;;;;;37.80;20.42;;;;;;;7.11;89.42;96223.50;5107424;28;20046;-73
2021/11/14 02:15:32;;;;;;;32.00;19.35;;;;;;;7.13;89.75;96222.09;5107633;28;20676;-73
2021/11/14 02:17:59;;;;;;;35.10;20.08;;;;;;;7.12;89.07;96233.25;5108305;28;20051;-72
2021/11/14 02:20:27;;;;;;;36.90;21.60;;;;;;;7.11;89.16;96224.31;5106987;28;20055;-73
2021/11/14 02:22:54;;;;;;;33.25;19.70;;;;;;;7.13;89.08;96224.81;5108371;28;20044;-71
2021/11/14 02:25:23;;;;;;;40.13;21.42;;;;;;;7.12;89.07;96227.81;5106573;28;20042;-73
2021/11/14 02:27:51;;;;;;;35.05;20.02;;;;;;;7.10;89.08;96220.00;5107892;28;20461;-72
2021/11/14 02:30:21;;;;;;;33.88;19.90;;;;;;;7.07;88.98;96221.38;5106786;28;20094;-73
2021/11/14 02:32:48;;;;;;;37.92;21.25;;;;;;;7.05;89.33;96217.38;5107356;28;20047;-73
2021/11/14 02:35:15;;;;;;;37.45;21.08;;;;;;;7.07;89.15;96220.59;5107293;28;20047;-71
2021/11/14 02:37:43;;;;;;;38.10;20.80;;;;;;;7.06;89.40;96227.91;5106741;28;20048;-72
2021/11/14 02:40:13;;;;;;;36.63;20.30;;;;;;;7.06;89.11;96230.63;5101537;28;20052;-71
2021/11/14 02:42:40;;;;;;;33.22;19.63;;;;;;;7.05;89.31;96234.44;5086229;28;20580;-71
2021/11/14 02:45:10;;;;;;;34.65;20.30;;;;;;;7.04;89.42;96232.81;5087290;28;20055;-71
2021/11/14 02:47:38;;;;;;;37.75;20.63;;;;;;;7.03;89.58;96228.50;5085756;28;20043;-71
2021/11/14 02:50:05;;;;;;;37.53;21.65;;;;;;;7.05;89.59;96228.22;5086098;28;20040;-70
2021/11/14 02:52:32;;;;;;;37.50;21.38;;;;;;;7.05;89.50;96228.22;5086755;28;20040;-71
2021/11/14 02:55:00;;;;;;;36.83;19.52;;;;;;;7.04;89.51;96230.09;5091282;28;20471;-71
2021/11/14 02:57:26;;;;;;;38.17;20.33;;;;;;;7.02;89.45;96218.78;5090975;28;20625;-72
2021/11/14 02:59:53;;;;;;;34.33;20.13;;;;;;;7.02;89.46;96218.78;5090473;28;20501;-71
2021/11/14 03:02:19;;;;;;;34.72;20.08;;;;;;;7.03;89.56;96219.56;5090773;28;20059;-71
2021/11/14 03:04:46;;;;;;;40.47;20.83;;;;;;;7.03;89.46;96231.19;5090667;28;20514;-71
2021/11/14 03:07:13;;;;;;;37.00;19.75;;;;;;;7.03;89.42;96225.00;5091295;28;20056;-70
2021/11/14 03:09:40;;;;;;;32.95;19.85;;;;;;;7.01;89.51;96229.91;5090217;28;20101;-71
2021/11/14 03:12:09;;;;;;;36.67;20.52;;;;;;;7.01;89.74;96222.59;5090963;28;20044;-71
2021/11/14 03:14:36;;;;;;;34.78;20.33;;;;;;;7.01;89.71;96222.59;5090757;28;20044;-71
2021/11/14 03:17:04;;;;;;;39.80;21.42;;;;;;;7.02;89.74;96217.97;5090798;28;20044;-70
2021/11/14 03:19:31;;;;;;;36.20;19.75;;;;;;;7.02;89.60;96226.91;5090510;28;20044;-70
2021/11/14 03:21:57;;;;;;;38.13;20.88;;;;;;;7.02;89.67;96226.91;5090622;28;20041;-71
2021/11/14 03:24:24;;;;;;;42.55;20.58;;;;;;;7.03;89.39;96233.91;5090498;28;20048;-71
2021/11/14 03:26:50;;;;;;;36.38;19.80;;;;;;;7.03;89.36;96231.19;5090473;28;20048;-70
2021/11/14 03:29:18;;;;;;;38.20;20.48;;;;;;;7.03;89.68;96230.41;5090230;28;20828;-71
2021/11/14 03:31:46;;;;;;;41.00;20.80;;;;;;;7.04;89.63;96232.81;5089572;28;20044;-71
2021/11/14 03:34:12;;;;;;;40.55;21.75;;;;;;;7.09;89.07;96223.78;5090384;28;20048;-71
2021/11/14 03:36:39;;;;;;;35.53;19.38;;;;;;;7.10;88.88;96219.19;5089928;28;20475;-71
2021/11/14 03:39:07;;;;;;;34.17;18.65;;;;;;;7.11;88.28;96216.19;5089928;28;20040;-70
2021/11/14 03:41:36;;;;;;;32.17;19.23;;;;;;;7.06;88.20;96213.56;5086838;28;20056;-72
2021/11/14 03:44:04;;;;;;;36.53;19.52;;;;;;;7.03;88.54;96216.88;5089957;28;20055;-70
2021/11/14 03:46:33;;;;;;;34.78;19.52;;;;;;;7.02;88.69;96220.69;5090537;28;20048;-71
2021/11/14 03:49:00;;;;;;;40.45;21.00;;;;;;;7.03;88.67;96214.97;5089778;28;20059;-71
2021/11/14 03:51:28;;;;;;;39.28;20.08;;;;;;;7.04;89.06;96221.97;5090019;28;20055;-71
2021/11/14 03:53:56;;;;;;;36.38;19.77;;;;;;;7.04;89.20;96221.97;5090176;28;20075;-71
2021/11/14 03:56:26;;;;;;;42.90;20.90;;;;;;;7.04;88.90;96227.38;5090302;28;20423;-71
2021/11/14 03:58:52;;;;;;;35.70;20.02;;;;;;;7.05;89.10;96228.22;5089233;28;20791;-71
2021/11/14 04:01:23;;;;;;;36.85;20.27;;;;;;;7.05;89.25;96229.03;5089638;28;20052;-72
2021/11/14 04:03:53;;;;;;;37.95;20.52;;;;;;;7.04;88.98;96232.81;5089885;28;20054;-71
2021/11/14 04:06:21;;;;;;;40.22;20.77;;;;;;;7.04;89.12;96232.81;5088178;28;20502;-71
2021/11/14 04:08:47;;;;;;;40.97;21.35;;;;;;;7.05;89.08;96229.03;5089811;28;20066;-72
2021/11/14 04:11:14;;;;;;;37.72;21.30;;;;;;;7.08;89.03;96222.19;5098615;28;20054;-72
2021/11/14 04:13:41;;;;;;;36.13;20.13;;;;;;;7.14;88.95;96225.59;5110636;28;20059;-73
2021/11/14 04:16:09;;;;;;;39.30;21.10;;;;;;;7.13;88.86;96224.00;5109182;27;20048;-73
2021/11/14 04:18:37;;;;;;;39.92;20.73;;;;;;;7.14;88.43;96231.03;5110642;28;20040;-72
2021/11/14 04:21:06;;;;;;;43.78;20.88;;;;;;;7.12;88.98;96228.63;5109180;28;20109;-72
2021/11/14 04:23:32;;;;;;;41.72;21.10;;;;;;;7.13;88.65;96229.41;5110062;28;20104;-72
2021/11/14 04:25:59;;;;;;;40.33;21.05;;;;;;;7.14;88.91;96228.31;5109763;27;20051;-72
2021/11/14 04:28:26;;;;;;;52.08;24.95;;;;;;;7.15;88.77;96232.63;5108884;28;20052;-73
2021/11/14 04:30:52;;;;;;;43.60;22.92;;;;;;;7.13;88.81;96240.25;5109913;28;20047;-70
2021/11/14 04:33:20;;;;;;;43.08;22.33;;;;;;;7.11;88.85;96242.47;5108851;28;20048;-72
2021/11/14 04:35:47;;;;;;;41.65;22.38;;;;;;;7.04;88.85;96246.34;5109947;28;20048;-71
2021/11/14 04:38:15;;;;;;;44.63;22.38;;;;;;;7.04;88.73;96248.25;5108393;28;20047;-71
2021/11/14 04:40:43;;;;;;;39.60;21.02;;;;;;;7.03;88.96;96263.69;5107418;28;20043;-71
2021/11/14 04:43:12;;;;;;;41.53;20.83;;;;;;;7.03;89.16;96258.28;5108381;27;20048;-71
2021/11/14 04:45:40;;;;;;;40.25;20.95;;;;;;;7.03;88.92;96258.28;5109626;28;20056;-70
2021/11/14 04:48:08;;;;;;;42.92;21.63;;;;;;;7.02;88.96;96256.69;5108955;28;20047;-70
2021/11/14 04:50:35;;;;;;;39.30;21.10;;;;;;;7.02;88.93;96253.16;5109195;28;20502;-71
2021/11/14 04:53:03;;;;;;;39.53;20.92;;;;;;;7.01;88.84;96257.78;5101086;28;20487;-71
2021/11/14 04:55:31;;;;;;;39.75;21.00;;;;;;;7.05;89.11;96256.09;5087984;28;20048;-70
2021/11/14 04:57:58;;;;;;;41.63;21.58;;;;;;;7.06;88.86;96265.81;5087910;28;20395;-71
2021/11/14 05:00:27;;;;;;;38.90;21.13;;;;;;;7.06;88.87;96268.53;5087672;28;20051;-70
2021/11/14 05:02:54;;;;;;;37.92;20.52;;;;;;;7.03;88.68;96258.28;5089010;28;20467;-71
2021/11/14 05:05:21;;;;;;;42.90;21.05;;;;;;;7.04;88.74;96265.28;5087702;28;20048;-70
2021/11/14 05:07:49;;;;;;;45.47;22.25;;;;;;;7.06;89.00;96268.53;5089030;28;20044;-71
2021/11/14 05:10:15;;;;;;;43.63;22.33;;;;;;;7.09;88.65;96266.31;5087591;28;20476;-71
2021/11/14 05:12:43;;;;;;;44.78;23.98;;;;;;;7.05;88.55;96272.34;5087725;28;20058;-70
2021/11/14 05:15:10;;;;;;;40.35;21.77;;;;;;;7.04;88.57;96275.31;5087861;28;20051;-70
2021/11/14 05:17:37;;;;;;;39.42;22.42;;;;;;;7.01;88.69;96270.53;5065377;28;20602;-70
2021/11/14 05:20:04;;;;;;;44.28;23.10;;;;;;;6.96;88.48;96279.53;5067841;28;20048;-71
2021/11/14 05:22:30;;;;;;;49.92;25.40;;;;;;;6.92;88.37;96278.50;5067566;28;20674;-71
2021/11/14 05:24:57;;;;;;;52.05;26.27;;;;;;;6.89;88.49;96281.81;5068571;28;20504;-71
2021/11/14 05:27:23;;;;;;;53.90;26.75;;;;;;;6.83;88.18;96280.28;5066893;28;20097;-71
2021/11/14 05:29:51;;;;;;;53.83;26.20;;;;;;;6.81;88.64;96285.19;5068380;28;20565;-71
2021/11/14 05:32:19;;;;;;;56.67;26.13;;;;;;;6.80;88.52;96286.28;5067294;28;20050;-70
2021/11/14 05:34:45;;;;;;;54.28;26.70;;;;;;;6.78;88.54;96293.88;5068120;28;20132;-71
2021/11/14 05:37:12;;;;;;;56.83;27.58;;;;;;;6.78;88.63;96299.28;5067615;28;20051;-70
2021/11/14 05:39:38;;;;;;;60.55;27.60;;;;;;;6.78;88.28;96300.09;5067952;28;20052;-72
2021/11/14 05:42:06;;;;;;;60.55;27.67;;;;;;;6.80;88.48;96294.41;5104128;28;20419;-72
2021/11/14 05:44:32;;;;;;;62.30;28.27;;;;;;;6.83;88.04;96296.50;5108018;28;20047;-71
2021/11/14 05:47:00;;;;;;;56.63;26.50;;;;;;;6.85;88.02;96294.34;5108806;28;20052;-71
2021/11/14 05:49:27;;;;;;;62.08;27.77;;;;;;;6.87;88.06;96302.94;5107643;28;20062;-70
2021/11/14 05:51:53;;;;;;;52.30;27.35;;;;;;;6.88;88.05;96303.75;5108813;28;20059;-71
2021/11/14 05:54:20;;;;;;;58.33;27.08;;;;;;;6.88;87.88;96299.13;5107302;28;20047;-71
2021/11/14 05:56:46;;;;;;;57.42;28.38;;;;;;;6.89;87.96;96294.53;5108517;28;20047;-71
2021/11/14 05:59:23;;;;;;;53.25;26.98;;;;;;;6.88;88.25;96299.13;5107002;28;20513;-71
2021/11/14 06:01:55;;;;;;;57.83;28.23;;;;;;;6.89;87.96;96303.47;5107828;28;20051;-70
2021/11/14 06:04:27;;;;;;;61.17;27.92;;;;;;;6.90;87.56;96298.88;5107831;28;20055;-70
2021/11/14 06:06:54;;;;;;;57.33;27.58;;;;;;;6.86;87.83;96305.97;5107698;28;20743;-70
2021/11/14 06:09:20;;;;;;;62.15;27.85;;;;;;;6.85;87.60;96310.56;5107707;28;20415;-70
2021/11/14 06:11:47;;;;;;;54.58;26.85;;;;;;;6.86;87.37;96317.59;5090002;28;20048;-70
2021/11/14 06:14:13;;;;;;;58.58;27.48;;;;;;;6.87;87.44;96316.47;5087504;28;20055;-70
2021/11/14 06:16:40;;;;;;;60.75;28.15;;;;;;;6.86;87.67;96314.88;5086893;28;20048;-71
2021/11/14 06:19:06;;;;;;;52.33;26.67;;;;;;;6.85;87.72;96318.69;5086947;28;20044;-71
2021/11/14 06:21:34;;;;;;;55.67;27.63;;;;;;;6.83;87.31;96323.56;5086955;28;20044;-70
2021/11/14 06:24:01;;;;;;;52.33;25.25;;;;;;;6.81;87.51;96342.03;5087311;28;20060;-70
2021/11/14 06:26:28;;;;;;;54.15;27.45;;;;;;;6.77;87.81;96341.00;5087284;28;20047;-71
2021/11/14 06:28:54;;;;;;;51.22;25.58;;;;;;;6.75;87.89;96344.00;5089558;28;20048;-71
2021/11/14 06:31:21;;;;;;;53.80;27.27;;;;;;;6.71;88.17;96353.00;5091282;28;20052;-70
2021/11/14 06:33:47;;;;;;;56.38;26.58;;;;;;;6.72;88.31;96352.69;5091169;28;20043;-70
2021/11/14 06:36:14;;;;;;;52.42;26.65;;;;;;;6.70;88.28;96354.91;5091704;28;20593;-70
2021/11/14 06:38:42;;;;;;;48.65;26.73;;;;;;;6.67;88.55;96357.38;5091102;28;20058;-71
2021/11/14 06:41:09;;;;;;;51.38;26.52;;;;;;;6.67;88.50;96351.97;5100167;28;20047;-71
2021/11/14 06:43:36;;;;;;;48.45;25.00;;;;;;;6.63;88.70;96356.34;5111075;28;20495;-69
2021/11/14 06:46:03;;;;;;;52.53;26.48;;;;;;;6.61;88.78;96353.16;5111580;27;20079;-70
2021/11/14 06:48:30;;;;;;;55.00;25.77;;;;;;;6.60;89.00;96351.53;5111527;28;20434;-69
2021/11/14 06:50:57;;;;;;;56.70;26.42;;;;;;;6.60;89.10;96355.06;5111311;27;20047;-70
2021/11/14 06:53:23;;;;;;;53.65;27.15;;;;;;;6.63;88.67;96353.66;5111362;28;20517;-70
2021/11/14 06:55:53;;;;;;;52.58;26.50;;;;;;;6.63;88.84;96357.19;5111106;27;20525;-70
2021/11/14 06:58:20;;;;;;;54.90;26.40;;;;;;;6.56;88.63;96354.03;5111362;27;20067;-70
2021/11/14 07:00:46;;;;;;;53.95;27.23;;;;;;;6.56;88.95;96353.22;5111363;28;20066;-70
2021/11/14 07:03:14;;;;;;;51.97;26.08;;;;;;;6.52;89.39;96361.94;5111649;28;20052;-71
2021/11/14 07:05:41;;;;;;;57.17;28.98;;;;;;;6.56;89.51;96353.22;5111188;28;20054;-71
2021/11/14 07:08:08;;;;;;;58.05;27.60;;;;;;;6.56;89.49;96355.91;5111034;28;20047;-70
2021/11/14 07:10:35;;;;;;;60.78;28.90;;;;;;;6.59;89.49;96360.75;5108703;28;20047;-70
2021/11/14 07:13:03;;;;;;;60.42;29.83;;;;;;;6.59;89.36;96355.34;5110738;27;20058;-71
2021/11/14 07:15:30;;;;;;;62.22;29.85;;;;;;;6.52;89.31;96351.13;5111434;27;20043;-71
2021/11/14 07:17:57;;;;;;;52.55;27.92;;;;;;;6.52;89.73;96353.81;5111833;28;20035;-71
2021/11/14 07:20:23;;;;;;;55.20;28.00;;;;;;;6.54;89.99;96358.94;5111430;28;20048;-71
2021/11/14 07:22:50;;;;;;;54.88;26.77;;;;;;;6.53;90.26;96357.31;5110690;27;20043;-71
2021/11/14 07:25:19;;;;;;;55.47;26.65;;;;;;;6.54;90.44;96359.72;5111201;28;20044;-71
2021/11/14 07:27:48;;;;;;;56.10;27.02;;;;;;;6.55;90.35;96360.53;5110416;27;20046;-70
2021/11/14 07:30:17;;;;;;;56.30;27.60;;;;;;;6.56;90.71;96369.44;5110923;27;20048;-71
2021/11/14 07:32:44;;;;;;;64.20;31.35;;;;;;;6.59;90.83;96377.78;5110559;28;20050;-70
2021/11/14 07:35:12;;;;;;;61.65;30.30;;;;;;;6.68;90.65;96377.94;5110445;28;20458;-70
2021/11/14 07:37:39;;;;;;;57.17;28.08;;;;;;;6.71;90.39;96380.06;5110491;28;20046;-70
2021/11/14 07:40:08;;;;;;;55.80;28.20;;;;;;;6.77;90.31;96385.09;5105069;28;20473;-71
2021/11/14 07:42:36;;;;;;;54.45;26.63;;;;;;;6.78;90.56;96385.91;5090479;28;20054;-70
2021/11/14 07:45:03;;;;;;;48.75;26.25;;;;;;;6.84;90.21;96392.88;5089149;28;20056;-71
2021/11/14 07:47:30;;;;;;;51.97;26.80;;;;;;;6.90;90.45;96394.41;5090755;28;20059;-72
2021/11/14 07:49:57;;;;;;;56.47;28.02;;;;;;;6.92;89.99;96392.19;5089678;28;20044;-71
2021/11/14 07:52:24;;;;;;;58.10;29.65;;;;;;;6.95;89.82;96394.34;5088467;28;20055;-72
2021/11/14 07:54:51;;;;;;;66.65;29.35;;;;;;;6.97;90.25;96389.41;5089602;28;20097;-72
2021/11/14 07:57:18;;;;;;;59.83;29.52;;;;;;;7.00;89.66;96388.03;5089600;28;20127;-71
2021/11/14 07:59:44;;;;;;;57.90;29.63;;;;;;;7.02;90.01;96392.06;5089323;28;20075;-72
2021/11/14 08:02:11;;;;;;;55.15;28.40;;;;;;;7.05;89.23;96391.47;5089126;28;20052;-72
2021/11/14 08:04:39;;;;;;;55.03;29.02;;;;;;;7.04;89.77;96389.03;5090027;28;20058;-71
2021/11/14 08:07:06;;;;;;;58.67;28.85;;;;;;;7.04;89.92;96384.44;5089207;28;20051;-72
2021/11/14 08:09:33;;;;;;;61.08;32.65;;;;;;;7.07;89.47;96394.69;5090250;28;20411;-72
2021/11/14 08:11:59;;;;;;;58.20;29.42;;;;;;;7.12;89.38;96396.50;5105404;28;20059;-72
2021/11/14 08:14:26;;;;;;;54.47;28.20;;;;;;;7.14;89.29;96393.50;5109981;27;20046;-72
2021/11/14 08:16:52;;;;;;;55.40;28.40;;;;;;;7.16;89.67;96389.41;5109242;28;20062;-73
2021/11/14 08:19:19;;;;;;;54.13;27.58;;;;;;;7.26;89.74;96383.03;5109485;28;20047;-72
2021/11/14 08:21:47;;;;;;;62.60;31.20;;;;;;;7.31;89.79;96391.06;5109906;28;20043;-71
2021/11/14 08:24:13;;;;;;;54.05;29.38;;;;;;;7.35;89.89;96389.38;5109364;28;20130;-72
2021/11/14 08:26:39;;;;;;;44.65;24.45;;;;;;;7.37;89.57;96381.75;5109809;28;20044;-72
2021/11/14 08:29:06;;;;;;;46.28;24.38;;;;;;;7.42;89.29;96384.38;5108853;27;20059;-72
2021/11/14 08:31:32;;;;;;;44.70;24.60;;;;;;;7.49;89.30;96390.22;5110063;28;20058;-72
2021/11/14 08:34:00;;;;;;;43.83;25.65;;;;;;;7.57;87.81;96386.84;5107640;28;20054;-72
2021/11/14 08:36:27;;;;;;;46.50;24.65;;;;;;;7.58;87.48;96387.63;5089225;28;20051;-72
2021/11/14 08:38:55;;;;;;;49.70;25.63;;;;;;;7.61;87.51;96380.81;5088497;28;20071;-72
2021/11/14 08:41:24;;;;;;;35.90;19.63;;;;;;;7.58;87.38;96385.72;5099855;28;20101;-72
2021/11/14 08:43:52;;;;;;;35.67;19.95;;;;;;;7.57;87.68;96388.75;5108977;28;20151;-72
2021/11/14 08:46:18;;;;;;;41.78;21.25;;;;;;;7.61;86.79;96392.44;5108912;28;20051;-72
2021/11/14 08:48:45;;;;;;;37.17;19.00;;;;;;;7.68;87.32;96387.47;5109159;28;20054;-73
2021/11/14 08:51:12;;;;;;;35.90;18.40;;;;;;;7.68;87.18;96397.50;5108625;28;20063;-72
2021/11/14 08:53:38;;;;;;;35.15;18.25;;;;;;;7.70;87.37;96395.28;5109503;27;20047;-72
2021/11/14 08:56:06;;;;;;;35.63;18.27;;;;;;;7.75;87.54;96396.00;5108144;28;20044;-71
2021/11/14 08:58:35;;;;;;;32.00;18.23;;;;;;;7.76;87.33;96396.78;5109143;28;20048;-72
2021/11/14 09:01:04;;;;;;;31.15;16.80;;;;;;;7.76;87.25;96399.50;5108308;27;20048;-71
2021/11/14 09:03:31;;;;;;;28.77;16.45;;;;;;;7.78;86.82;96394.59;5109604;27;20051;-72
2021/11/14 09:05:58;;;;;;;30.42;16.10;;;;;;;7.77;86.06;96395.69;5108508;28;20050;-72
2021/11/14 09:08:25;;;;;;;28.70;15.82;;;;;;;7.80;85.55;96395.91;5108317;28;20039;-72
2021/11/14 09:10:51;;;;;;;28.95;16.27;;;;;;;7.76;85.28;96394.88;5098956;28;20471;-72
2021/11/14 09:13:20;;;;;;;28.55;15.50;;;;;;;7.75;84.90;96400.63;5087486;28;20047;-72
2021/11/14 09:15:47;;;;;;;28.83;14.80;;;;;;;7.70;84.07;96395.28;5088439;28;20040;-72
2021/11/14 09:18:14;;;;;;;25.38;14.98;;;;;;;7.72;84.61;96401.19;5087022;28;20056;-71
2021/11/14 09:20:40;;;;;;;29.13;16.15;;;;;;;7.76;84.79;96403.00;5088948;28;20104;-72
2021/11/14 09:23:07;;;;;;;30.60;15.52;;;;;;;7.81;85.07;96407.53;5086825;28;20044;-71
2021/11/14 09:25:39;;;;;;;30.52;16.33;;;;;;;7.90;85.56;96408.47;5088756;28;20499;-72
2021/11/14 09:28:06;;;;;;;29.67;16.45;;;;;;;7.97;85.87;96400.75;5087348;28;20051;-71
2021/11/14 09:30:34;;;;;;;33.03;16.77;;;;;;;8.04;86.07;96394.94;5088625;28;20048;-71
2021/11/14 09:33:01;;;;;;;32.92;16.80;;;;;;;8.08;85.24;96401.34;5087809;28;20511;-72
2021/11/14 09:35:27;;;;;;;28.73;16.85;;;;;;;8.11;85.09;96403.47;5079189;28;20502;-72
2021/11/14 09:37:54;;;;;;;27.02;15.10;;;;;;;8.16;84.80;96408.00;5088305;28;20048;-72
2021/11/14 09:40:20;;;;;;;28.10;16.25;;;;;;;8.21;84.96;96405.19;5089237;28;20044;-72
2021/11/14 09:42:47;;;;;;;28.73;17.70;;;;;;;8.25;84.67;96407.00;5108774;28;20509;-71
2021/11/14 09:45:13;;;;;;;26.30;15.48;;;;;;;8.28;84.84;96405.56;5107328;28;20051;-71
2021/11/14 09:47:41;;;;;;;29.70;15.75;;;;;;;8.33;84.74;96409.00;5108453;28;20528;-74
2021/11/14 09:50:09;;;;;;;28.63;15.70;;;;;;;8.39;84.77;96407.00;5092104;28;20464;-71
2021/11/14 09:52:38;;;;;;;27.05;15.98;;;;;;;8.41;83.73;96412.16;5088229;28;20076;-71
2021/11/14 09:55:07;;;;;;;27.23;15.05;;;;;;;8.41;84.07;96418.38;5087524;28;20071;-72
2021/11/14 09:57:34;;;;;;;27.63;16.42;;;;;;;8.41;84.04;96418.38;5087901;28;20051;-71
2021/11/14 10:00:00;;;;;;;36.45;20.90;;;;;;;8.45;84.23;96413.94;5087614;28;20051;-71
2021/11/14 10:02:27;;;;;;;24.98;14.75;;;;;;;8.45;83.70;96410.41;5066094;28;20495;-72
2021/11/14 10:04:55;;;;;;;27.55;15.45;;;;;;;8.44;83.85;96415.03;5068207;28;20499;-72
2021/11/14 10:07:22;;;;;;;25.90;14.38;;;;;;;8.42;83.57;96411.84;5065909;28;20071;-71
2021/11/14 10:09:51;;;;;;;27.90;16.40;;;;;;;8.44;83.40;96415.03;5068047;28;20048;-71
2021/11/14 10:12:20;;;;;;;26.83;14.65;;;;;;;8.50;83.79;96416.53;5066725;28;20051;-71
2021/11/14 10:14:49;;;;;;;25.60;15.60;;;;;;;8.53;83.64;96413.25;5067696;28;20044;-72
2021/11/14 10:17:21;;;;;;;24.67;14.55;;;;;;;8.55;83.17;96416.44;5067023;28;20048;-71
2021/11/14 10:20:07;;;;;;;25.30;14.32;;;;;;;8.54;83.16;96403.97;5067453;28;20560;-73
2021/11/14 10:22:36;;;;;;;27.55;15.15;;;;;;;8.56;82.84;96411.81;5067855;28;20045;-71
2021/11/14 10:25:03;;;;;;;28.30;16.17;;;;;;;8.52;83.14;96417.06;5066645;28;20049;-71
2021/11/14 10:27:30;;;;;;;26.55;14.50;;;;;;;8.52;83.28;96414.34;5068028;28;20411;-71
2021/11/14 10:29:57;;;;;;;22.33;14.07;;;;;;;8.52;83.30;96406.22;5066490;28;20503;-72
2021/11/14 10:32:26;;;;;;;28.80;15.45;;;;;;;8.55;83.65;96410.22;5067239;28;20057;-71
2021/11/14 10:34:56;;;;;;;26.30;14.60;;;;;;;8.55;83.58;96405.59;5067179;28;20141;-71
2021/11/14 10:37:24;;;;;;;26.50;14.63;;;;;;;8.54;83.95;96403.97;5066515;28;20072;-71
2021/11/14 10:39:52;;;;;;;24.08;14.50;;;;;;;8.56;83.69;96407.22;5066862;28;20056;-71
2021/11/14 10:42:19;;;;;;;24.10;13.65;;;;;;;8.57;83.26;96402.59;5066234;28;20053;-71
2021/11/14 10:44:48;;;;;;;26.90;14.77;;;;;;;8.57;83.70;96408.81;5067883;28;20056;-71
2021/11/14 10:47:21;;;;;;;26.70;14.45;;;;;;;8.55;83.83;96402.88;5065621;28;20048;-71
2021/11/14 10:49:55;;;;;;;27.95;15.32;;;;;;;8.52;83.03;96406.22;5067556;28;20047;-71
2021/11/14 10:52:24;;;;;;;25.70;14.80;;;;;;;8.51;83.70;96401.88;5066186;28;20126;-72
2021/11/14 10:54:52;;;;;;;27.13;14.75;;;;;;;8.55;83.60;96408.28;5066886;28;20061;-71
2021/11/14 10:57:19;;;;;;;22.98;13.68;;;;;;;8.54;83.76;96397.75;5066312;28;20057;-71
2021/11/14 10:59:49;;;;;;;23.73;13.88;;;;;;;8.56;83.58;96401.78;5065515;28;20403;-71
2021/11/14 11:02:16;;;;;;;24.95;14.13;;;;;;;8.57;83.51;96392.53;5066650;28;20135;-71
2021/11/14 11:04:42;;;;;;;27.52;15.18;;;;;;;8.52;83.58;96400.78;5065927;28;20083;-73
2021/11/14 11:07:10;;;;;;;24.30;15.05;;;;;;;8.48;82.97;96399.78;5066241;28;20048;-71
2021/11/14 11:09:42;;;;;;;27.05;15.95;;;;;;;8.47;83.44;96403.59;5065846;28;20575;-71
2021/11/14 11:12:19;;;;;;;30.00;16.30;;;;;;;8.48;83.58;96399.78;5084150;28;20048;-71
2021/11/14 11:14:58;;;;;;;25.85;15.25;;;;;;;8.48;83.35;96401.69;5088526;28;20058;-71
2021/11/14 11:17:25;;;;;;;27.25;15.57;;;;;;;8.45;83.37;96399.56;5089810;28;20506;-71
2021/11/14 11:19:52;;;;;;;24.17;14.95;;;;;;;8.43;83.55;96405.31;5090787;28;20048;-71
2021/11/14 11:22:19;;;;;;;24.77;15.23;;;;;;;8.47;83.32;96402.81;5089628;28;20048;-71
2021/11/14 11:24:53;;;;;;;26.67;15.13;;;;;;;8.47;83.54;96403.59;5090515;28;20052;-71